Time;durP1;ratioP1;P1;durP2;ratioP2;P2;SDS_P1;SDS_P2;PMS_P1;PMS_P2;Temp;Humidity;BMP_temperature;BMP_pressure;BME280_temperature;BME280_humidity;BME280_pressure;Samples;Min_cycle;Max_cycle;Signal;HPM_P1;HPM_P2
2023/09/27 00:00:21;;;;;;;23.13;7.50;;;;;;;21.34;70.14;100922.72;5051097;28;20029;-80
2023/09/27 00:02:46;;;;;;;26.65;6.53;;;;;;;21.77;69.60;100984.00;5050522;28;20044;-79
2023/09/27 00:05:12;;;;;;;25.58;7.35;;;;;;;21.73;69.66;100987.31;5015574;28;20044;-79
2023/09/27 00:07:39;;;;;;;30.85;6.40;;;;;;;21.67;69.54;100969.75;5050742;28;20090;-79
2023/09/27 00:10:09;;;;;;;27.45;6.63;;;;;;;21.66;69.32;100977.09;5051052;28;20111;-79
2023/09/27 00:12:35;;;;;;;24.70;7.28;;;;;;;21.66;69.18;100968.88;5050723;28;20044;-80
2023/09/27 00:15:04;;;;;;;23.48;6.18;;;;;;;21.70;68.77;100972.09;5051178;28;20029;-78
2023/09/27 00:17:30;;;;;;;17.83;6.43;;;;;;;21.64;69.01;100981.94;5050322;28;20029;-79
2023/09/27 00:19:56;;;;;;;16.63;4.90;;;;;;;21.55;68.75;100960.31;5049058;28;20690;-78
2023/09/27 00:22:22;;;;;;;34.40;6.82;;;;;;;21.53;69.20;100960.47;5050990;28;20030;-80
2023/09/27 00:24:47;;;;;;;21.05;6.30;;;;;;;21.56;68.66;100953.75;5050927;28;20033;-80
2023/09/27 00:27:13;;;;;;;22.40;6.60;;;;;;;21.58;69.04;100955.31;5050567;28;20557;-80
2023/09/27 00:29:38;;;;;;;20.95;5.40;;;;;;;21.53;68.92;100949.53;5050593;28;20064;-80
2023/09/27 00:32:04;;;;;;;27.33;6.45;;;;;;;21.34;69.24;100921.88;5050454;28;20544;-80
2023/09/27 00:34:31;;;;;;;20.00;5.80;;;;;;;21.56;69.16;100962.84;5049988;28;20529;-80
2023/09/27 00:36:56;;;;;;;18.27;5.45;;;;;;;21.59;69.08;100951.50;5050344;28;20021;-79
2023/09/27 00:39:21;;;;;;;24.30;5.88;;;;;;;21.44;68.87;100922.44;5050629;28;20021;-79
2023/09/27 00:41:47;;;;;;;19.65;7.00;;;;;;;21.56;69.31;100943.66;5050492;28;20096;-79
2023/09/27 00:44:12;;;;;;;22.83;6.47;;;;;;;21.56;69.16;100956.50;5050348;28;20059;-79
2023/09/27 00:46:39;;;;;;;36.28;6.60;;;;;;;21.57;69.60;100959.06;5050344;28;20032;-79
2023/09/27 00:49:05;;;;;;;22.50;6.22;;;;;;;21.59;69.44;100970.66;5050315;28;20079;-78
2023/09/27 00:51:31;;;;;;;28.90;6.47;;;;;;;21.51;69.67;100948.88;5048801;28;20041;-78
2023/09/27 00:53:58;;;;;;;22.67;6.65;;;;;;;21.54;69.84;100975.88;5050024;28;20039;-80
2023/09/27 00:56:25;;;;;;;21.38;6.50;;;;;;;21.30;70.27;100935.06;5049862;28;20032;-78
2023/09/27 00:58:51;;;;;;;21.23;5.80;;;;;;;21.47;70.47;100969.44;5050226;28;20017;-79
2023/09/27 01:01:16;;;;;;;29.88;7.75;;;;;;;21.50;70.48;100962.72;5050021;28;20115;-79
2023/09/27 01:03:42;;;;;;;19.33;6.88;;;;;;;21.40;70.62;100952.09;5049566;28;20171;-78
2023/09/27 01:06:08;;;;;;;20.05;5.93;;;;;;;21.24;70.93;100924.88;5049843;28;20386;-78
2023/09/27 01:08:34;;;;;;;25.27;7.07;;;;;;;21.18;71.22;100922.88;5014428;28;20106;-79
2023/09/27 01:11:01;;;;;;;30.13;6.75;;;;;;;21.33;71.22;100944.78;5049584;28;20036;-78
2023/09/27 01:13:27;;;;;;;14.30;6.15;;;;;;;21.41;71.32;100963.84;5049372;28;20056;-79
2023/09/27 01:15:52;;;;;;;31.25;6.07;;;;;;;21.42;71.42;100952.75;5031920;28;20056;-79
2023/09/27 01:18:18;;;;;;;20.75;6.00;;;;;;;21.29;71.37;100930.63;5049407;28;20029;-78
2023/09/27 01:20:43;;;;;;;25.10;5.65;;;;;;;21.38;71.76;100948.66;5049349;28;20432;-79
2023/09/27 01:23:08;;;;;;;30.98;6.57;;;;;;;21.33;72.20;100945.66;5049622;28;20025;-78
2023/09/27 01:25:39;;;;;;;34.83;7.53;;;;;;;21.26;72.47;100944.69;5049409;28;20106;-80
2023/09/27 01:28:07;;;;;;;20.25;6.40;;;;;;;21.26;72.74;100936.47;5049764;28;20111;-78
2023/09/27 01:30:33;;;;;;;19.23;6.22;;;;;;;21.26;73.00;100944.69;5049502;28;20419;-78
2023/09/27 01:33:06;;;;;;;14.32;5.72;;;;;;;21.13;73.22;100917.09;5049520;28;20045;-78
2023/09/27 01:35:35;;;;;;;28.20;6.65;;;;;;;21.21;73.31;100932.59;5049475;28;20464;-79
2023/09/27 01:38:02;;;;;;;23.35;6.65;;;;;;;21.15;73.74;100937.78;5049328;28;20032;-78
2023/09/27 01:40:30;;;;;;;14.10;6.05;;;;;;;21.19;73.74;100938.28;5049436;28;20025;-79
2023/09/27 01:43:00;;;;;;;19.77;5.35;;;;;;;21.13;73.96;100939.84;5049058;28;20428;-78
2023/09/27 01:45:26;;;;;;;24.83;6.38;;;;;;;21.12;74.10;100937.31;5048898;28;20043;-78
2023/09/27 01:47:52;;;;;;;24.30;6.35;;;;;;;21.03;74.42;100922.84;5049529;28;20039;-79
2023/09/27 01:50:19;;;;;;;28.08;6.82;;;;;;;21.14;74.73;100936.09;5049133;28;20037;-78
2023/09/27 01:52:46;;;;;;;34.58;6.93;;;;;;;20.99;74.79;100915.16;5049328;28;20127;-78
2023/09/27 01:55:12;;;;;;;21.10;6.72;;;;;;;21.11;75.11;100941.06;5049604;28;20079;-79
2023/09/27 01:57:37;;;;;;;21.10;6.50;;;;;;;21.15;75.03;100943.28;5031608;28;20451;-79
2023/09/27 02:00:08;;;;;;;29.88;7.00;;;;;;;21.20;75.25;100944.56;5049568;28;20112;-78
2023/09/27 02:02:34;;;;;;;27.17;7.68;;;;;;;21.20;75.32;100944.56;5017739;28;20040;-79
2023/09/27 02:04:59;;;;;;;35.63;6.75;;;;;;;21.21;75.37;100941.66;5052938;28;20093;-78
2023/09/27 02:07:25;;;;;;;27.08;5.95;;;;;;;21.26;75.47;100938.34;5053190;28;20025;-80
2023/09/27 02:09:50;;;;;;;17.60;6.35;;;;;;;21.08;75.92;100911.31;5053339;28;20025;-78
2023/09/27 02:12:15;;;;;;;20.17;6.63;;;;;;;20.97;76.00;100896.22;5052786;28;20078;-79
2023/09/27 02:14:41;;;;;;;23.02;7.50;;;;;;;21.30;76.04;100935.06;5052662;28;20470;-79
2023/09/27 02:17:07;;;;;;;26.08;6.47;;;;;;;21.19;76.32;100927.34;5052867;28;20021;-79
2023/09/27 02:19:34;;;;;;;15.77;6.30;;;;;;;21.25;76.66;100943.00;5034054;28;20405;-79
2023/09/27 02:22:00;;;;;;;24.25;7.18;;;;;;;21.28;76.52;100937.16;5052942;28;20112;-80
2023/09/27 02:24:25;;;;;;;28.63;7.43;;;;;;;21.29;76.85;100933.38;5052917;28;20505;-79
2023/09/27 02:26:53;;;;;;;21.77;7.25;;;;;;;21.21;76.97;100935.34;5053376;28;20040;-81
2023/09/27 02:29:19;;;;;;;20.67;6.80;;;;;;;21.26;77.05;100939.22;5052649;28;20087;-79
2023/09/27 02:31:44;;;;;;;24.58;7.25;;;;;;;21.17;77.08;100926.66;5052916;28;20040;-80
2023/09/27 02:34:12;;;;;;;21.50;7.07;;;;;;;21.30;77.11;100940.56;5052896;28;20021;-78
2023/09/27 02:36:38;;;;;;;29.38;8.55;;;;;;;21.27;77.16;100940.91;5053065;28;20032;-78
2023/09/27 02:39:04;;;;;;;19.08;7.03;;;;;;;20.97;77.63;100893.50;5053019;28;20031;-78
2023/09/27 02:41:30;;;;;;;33.80;8.95;;;;;;;21.14;77.71;100911.47;5054363;28;20144;-80
2023/09/27 02:43:55;;;;;;;23.25;7.07;;;;;;;21.30;77.72;100943.28;5078597;28;20062;-78
2023/09/27 02:46:22;;;;;;;18.73;6.72;;;;;;;21.35;77.75;100949.03;5075218;28;20033;-78
2023/09/27 02:48:47;;;;;;;25.50;8.98;;;;;;;21.27;78.01;100946.41;5075165;28;20027;-80
2023/09/27 02:51:17;;;;;;;18.10;7.28;;;;;;;21.25;78.21;100934.78;5075905;28;20045;-79
2023/09/27 02:53:42;;;;;;;36.88;8.45;;;;;;;21.16;78.48;100935.88;5021127;28;20424;-79
2023/09/27 02:56:08;;;;;;;19.20;7.60;;;;;;;21.14;78.87;100941.56;5075494;28;20029;-79
2023/09/27 02:58:34;;;;;;;16.88;7.60;;;;;;;21.20;78.85;100945.44;5076965;28;20467;-79
2023/09/27 03:01:00;;;;;;;24.80;7.57;;;;;;;21.20;79.06;100948.16;5077954;28;20031;-79
2023/09/27 03:03:26;;;;;;;17.38;7.25;;;;;;;21.19;79.13;100949.22;5074540;28;20025;-78
2023/09/27 03:05:52;;;;;;;26.67;7.55;;;;;;;21.22;79.37;100950.72;5073098;28;20197;-79
2023/09/27 03:08:17;;;;;;;23.13;7.90;;;;;;;21.24;79.46;100940.44;5072572;28;20486;-79
2023/09/27 03:10:43;;;;;;;18.48;7.07;;;;;;;21.19;79.67;100938.28;5072396;28;20025;-78
2023/09/27 03:13:09;;;;;;;28.35;7.63;;;;;;;21.15;79.73;100926.00;5035461;28;20032;-78
2023/09/27 03:15:35;;;;;;;18.35;6.18;;;;;;;21.15;79.77;100926.00;5072222;28;20044;-79
2023/09/27 03:18:02;;;;;;;18.83;6.82;;;;;;;21.16;80.07;100935.88;5025735;28;20052;-78
2023/09/27 03:20:28;;;;;;;23.60;7.22;;;;;;;21.23;80.04;100942.31;5052175;28;20116;-80
2023/09/27 03:22:53;;;;;;;20.55;7.57;;;;;;;21.23;79.83;100938.72;5051923;28;20151;-78
2023/09/27 03:25:19;;;;;;;31.60;8.05;;;;;;;21.26;79.84;100946.56;5051457;28;20040;-79
2023/09/27 03:27:45;;;;;;;36.22;12.63;;;;;;;21.26;79.92;100938.34;5051648;28;20075;-79
2023/09/27 03:30:11;;;;;;;62.55;24.73;;;;;;;21.05;79.96;100914.44;5052020;28;20025;-79
2023/09/27 03:32:36;;;;;;;31.65;11.60;;;;;;;21.16;80.03;100936.75;5051896;28;20020;-79
2023/09/27 03:35:03;;;;;;;24.25;6.88;;;;;;;21.23;80.08;100953.25;5051308;28;20108;-78
2023/09/27 03:37:28;;;;;;;33.90;6.63;;;;;;;21.24;80.46;100945.91;5051414;28;20029;-79
2023/09/27 03:39:55;;;;;;;19.23;8.50;;;;;;;21.17;80.40;100924.78;5051525;28;20389;-79
2023/09/27 03:42:22;;;;;;;24.33;9.25;;;;;;;21.24;80.42;100935.81;5033484;28;20064;-79
2023/09/27 03:44:48;;;;;;;33.15;8.75;;;;;;;21.26;80.68;100939.22;5051574;28;20112;-78
2023/09/27 03:47:14;;;;;;;22.40;8.20;;;;;;;21.26;80.68;100947.41;5051651;28;20036;-79
2023/09/27 03:49:41;;;;;;;35.90;8.07;;;;;;;21.02;81.14;100903.88;5050670;28;20120;-79
2023/09/27 03:52:07;;;;;;;31.52;8.15;;;;;;;21.20;81.17;100939.97;5066272;28;20618;-79
2023/09/27 03:54:32;;;;;;;23.15;9.05;;;;;;;21.17;81.50;100934.84;5050295;28;20481;-80
2023/09/27 03:56:58;;;;;;;25.95;9.07;;;;;;;21.19;81.72;100938.28;5051010;28;20032;-80
2023/09/27 03:59:24;;;;;;;25.90;11.02;;;;;;;21.18;81.83;100936.56;5051494;28;20021;-80
2023/09/27 04:01:49;;;;;;;30.52;8.35;;;;;;;21.18;81.79;100952.97;5050752;28;20032;-80
2023/09/27 04:04:15;;;;;;;20.38;7.65;;;;;;;21.19;81.61;100937.41;5050889;28;20113;-78
2023/09/27 04:06:40;;;;;;;22.13;8.63;;;;;;;21.17;82.21;100945.81;5050783;28;20543;-78
2023/09/27 04:09:07;;;;;;;27.48;9.23;;;;;;;21.14;82.42;100947.03;5050910;28;20509;-81
2023/09/27 04:11:33;;;;;;;24.67;8.23;;;;;;;21.22;82.51;100956.19;5050642;28;20021;-80
2023/09/27 04:13:58;;;;;;;40.50;8.55;;;;;;;21.21;82.63;100947.13;5050520;28;20603;-78
2023/09/27 04:16:26;;;;;;;52.05;9.85;;;;;;;21.21;82.63;100947.13;5049411;28;20043;-83
2023/09/27 04:18:51;;;;;;;37.40;10.38;;;;;;;21.20;82.42;100947.31;5050360;28;20043;-81
2023/09/27 04:21:17;;;;;;;24.80;10.18;;;;;;;21.25;82.46;100953.94;5051230;28;20024;-81
2023/09/27 04:23:42;;;;;;;34.28;8.85;;;;;;;21.25;82.55;100955.84;5049996;28;20025;-80
2023/09/27 04:26:09;;;;;;;34.20;8.95;;;;;;;21.16;82.74;100944.94;5051578;28;20025;-84
2023/09/27 04:28:35;;;;;;;33.10;9.05;;;;;;;21.03;82.88;100927.44;5050453;28;20032;-82
2023/09/27 04:31:00;;;;;;;23.85;9.55;;;;;;;21.26;83.13;100968.44;5050658;28;20025;-82
2023/09/27 04:33:26;;;;;;;31.02;10.25;;;;;;;21.21;83.48;100955.34;5050372;28;20406;-79
2023/09/27 04:35:51;;;;;;;32.65;12.13;;;;;;;21.29;83.75;100963.47;5050397;28;20098;-79
2023/09/27 04:38:16;;;;;;;30.42;9.05;;;;;;;21.23;84.00;100949.69;5050883;28;20029;-88
2023/09/27 04:40:42;;;;;;;25.17;9.00;;;;;;;21.32;84.42;100965.81;5051017;28;20118;-83
2023/09/27 04:43:08;;;;;;;40.40;9.18;;;;;;;21.37;84.45;100968.88;5034430;28;20652;-81
2023/09/27 04:45:33;;;;;;;30.73;13.15;;;;;;;21.35;84.54;100959.13;5050185;28;20465;-82
2023/09/27 04:47:59;;;;;;;34.80;9.65;;;;;;;21.12;84.73;100932.69;5050972;28;20086;-81
2023/09/27 04:50:25;;;;;;;32.83;9.35;;;;;;;21.25;85.17;100942.16;5050428;28;20515;-82
2023/09/27 04:52:51;;;;;;;26.85;9.48;;;;;;;21.36;85.38;100978.13;5050809;28;20021;-82
2023/09/27 04:55:17;;;;;;;25.88;9.00;;;;;;;21.29;85.80;100966.19;5050071;28;20139;-82
2023/09/27 04:57:43;;;;;;;43.85;9.38;;;;;;;21.37;85.96;100971.63;5038207;28;20029;-84
2023/09/27 05:00:18;;;;;;;31.00;10.43;;;;;;;21.38;86.43;100981.50;5049766;28;20083;-79
2023/09/27 05:02:43;;;;;;;42.00;10.23;;;;;;;21.36;86.67;100983.59;5049754;28;20064;-77
2023/09/27 05:05:09;;;;;;;27.88;11.63;;;;;;;21.35;87.20;100976.41;5049456;28;20107;-79
2023/09/27 05:07:34;;;;;;;34.40;11.10;;;;;;;21.41;87.51;100981.13;5049298;28;20025;-78
2023/09/27 05:10:00;;;;;;;22.08;8.93;;;;;;;21.35;88.03;100979.13;5048975;28;20477;-79
2023/09/27 05:12:28;;;;;;;25.95;8.43;;;;;;;21.45;88.47;100987.09;5049528;28;20093;-79
2023/09/27 05:14:54;;;;;;;31.00;10.90;;;;;;;21.45;88.76;100982.47;5047462;28;20121;-79
2023/09/27 05:17:19;;;;;;;30.83;9.88;;;;;;;21.34;88.77;100952.84;5049331;28;20115;-79
2023/09/27 05:19:45;;;;;;;31.92;8.93;;;;;;;21.38;89.11;100959.59;5050191;28;20054;-79
2023/09/27 05:22:11;;;;;;;20.60;9.77;;;;;;;21.52;89.23;100972.47;5049466;28;20082;-79
2023/09/27 05:24:38;;;;;;;36.20;10.32;;;;;;;21.42;89.35;100950.00;5030531;28;20033;-77
2023/09/27 05:27:07;;;;;;;34.90;10.98;;;;;;;21.70;89.19;100978.44;4997806;28;20037;-79
2023/09/27 05:29:33;;;;;;;25.98;10.55;;;;;;;21.80;89.26;100980.91;5049643;28;20100;-77
2023/09/27 05:31:59;;;;;;;22.35;9.30;;;;;;;21.71;89.29;100955.47;5049865;28;20536;-78
2023/09/27 05:34:24;;;;;;;19.05;8.57;;;;;;;21.73;89.02;100951.72;5049231;28;20501;-78
2023/09/27 05:36:50;;;;;;;36.67;11.40;;;;;;;21.99;88.71;100980.34;5048753;28;20582;-79
2023/09/27 05:39:16;;;;;;;35.25;10.05;;;;;;;22.05;88.60;100985.06;5049368;28;20025;-78
2023/09/27 05:41:42;;;;;;;27.52;8.70;;;;;;;22.09;88.68;100983.63;5049890;28;20057;-79
2023/09/27 05:44:07;;;;;;;31.60;9.98;;;;;;;22.14;88.42;100974.84;5049683;28;20032;-79
2023/09/27 05:46:33;;;;;;;34.58;10.80;;;;;;;22.16;88.33;100970.88;5049288;28;20122;-78
2023/09/27 05:49:01;;;;;;;19.48;7.78;;;;;;;22.33;87.66;100976.97;5049325;28;20025;-79
2023/09/27 05:51:29;;;;;;;24.10;10.02;;;;;;;22.16;87.35;100937.16;5048972;28;20471;-78
2023/09/27 05:53:54;;;;;;;39.63;9.68;;;;;;;22.09;86.77;100914.28;5049352;28;20036;-78
2023/09/27 05:56:20;;;;;;;50.80;12.13;;;;;;;22.53;86.25;100972.59;5048820;28;20033;-78
2023/09/27 05:58:45;;;;;;;26.02;8.27;;;;;;;22.64;86.07;100988.53;5049480;28;20106;-78
2023/09/27 06:01:11;;;;;;;28.77;8.00;;;;;;;22.75;85.57;100987.22;5048808;28;20108;-79
2023/09/27 06:03:38;;;;;;;55.55;10.52;;;;;;;22.81;84.47;100982.81;5006138;28;20184;-79
2023/09/27 06:06:04;;;;;;;35.28;10.25;;;;;;;22.82;84.10;100979.88;5006630;28;20045;-78
2023/09/27 06:08:30;;;;;;;49.60;11.52;;;;;;;22.98;83.78;100987.00;5007127;28;20510;-78
2023/09/27 06:10:59;;;;;;;38.25;9.40;;;;;;;22.98;82.82;100984.25;5007236;28;20040;-78
2023/09/27 06:13:26;;;;;;;79.50;14.27;;;;;;;23.07;82.71;100991.31;5007042;28;20041;-78
2023/09/27 06:15:54;;;;;;;21.55;8.43;;;;;;;23.19;81.76;100995.22;5006954;28;20535;-78
2023/09/27 06:18:19;;;;;;;24.85;9.05;;;;;;;23.25;81.72;100988.94;5006132;28;20033;-78
2023/09/27 06:20:45;;;;;;;22.52;8.60;;;;;;;23.26;81.31;100979.66;5006637;28;20030;-79
2023/09/27 06:23:10;;;;;;;31.73;9.57;;;;;;;23.37;80.61;100991.97;5006450;28;20470;-80
2023/09/27 06:25:36;;;;;;;41.35;11.02;;;;;;;23.41;80.04;100983.19;5007066;28;20065;-78
2023/09/27 06:28:01;;;;;;;28.58;8.73;;;;;;;23.49;79.73;100991.25;5006529;28;20038;-78
2023/09/27 06:30:27;;;;;;;37.85;9.00;;;;;;;23.49;79.00;100991.25;5006971;28;20070;-78
2023/09/27 06:32:53;;;;;;;28.30;8.82;;;;;;;23.60;78.56;101004.47;5006459;28;20038;-79
2023/09/27 06:35:18;;;;;;;31.60;11.07;;;;;;;23.59;78.29;100979.94;5006108;28;20061;-78
2023/09/27 06:37:48;;;;;;;31.25;11.35;;;;;;;23.49;78.10;100958.31;5007042;28;20034;-78
2023/09/27 06:40:16;;;;;;;38.63;10.23;;;;;;;23.69;78.00;100986.78;5013331;28;20033;-77
2023/09/27 06:42:46;;;;;;;50.70;10.45;;;;;;;23.71;77.18;100984.66;5048857;28;20092;-78
2023/09/27 06:45:13;;;;;;;37.88;11.23;;;;;;;23.74;76.73;100980.66;5048773;28;20028;-78
2023/09/27 06:47:40;;;;;;;57.90;18.45;;;;;;;23.77;76.23;100977.50;5033257;28;20037;-79
2023/09/27 06:50:08;;;;;;;35.60;11.40;;;;;;;23.85;76.07;100986.44;5052101;28;20649;-78
2023/09/27 06:52:34;;;;;;;32.97;10.98;;;;;;;24.02;75.79;100991.59;5034244;28;20029;-80
2023/09/27 06:55:00;;;;;;;40.83;10.70;;;;;;;24.00;75.24;100985.47;5051946;28;20120;-80
2023/09/27 06:57:26;;;;;;;55.92;12.88;;;;;;;24.13;74.60;100993.78;5052201;28;20108;-79
2023/09/27 06:59:51;;;;;;;50.78;13.02;;;;;;;24.04;74.10;100957.38;5016771;28;20120;-79
2023/09/27 07:02:17;;;;;;;26.98;10.30;;;;;;;24.28;73.50;100991.75;5051876;28;20087;-79
2023/09/27 07:04:42;;;;;;;41.83;10.20;;;;;;;24.33;73.03;101000.25;5053006;28;20025;-79
2023/09/27 07:07:10;;;;;;;46.85;12.75;;;;;;;24.31;72.38;100991.38;5052009;28;20025;-79
2023/09/27 07:09:35;;;;;;;60.47;13.73;;;;;;;24.24;71.76;100952.00;5052208;28;20428;-79
2023/09/27 07:12:01;;;;;;;30.83;9.95;;;;;;;24.57;71.00;101002.44;5051588;28;20111;-79
2023/09/27 07:14:28;;;;;;;33.13;9.10;;;;;;;24.55;69.72;100988.06;5052174;28;20028;-78
2023/09/27 07:16:53;;;;;;;25.48;9.38;;;;;;;24.45;69.58;100968.34;5051822;28;20079;-79
2023/09/27 07:19:19;;;;;;;32.22;10.48;;;;;;;24.74;69.66;101008.41;5051822;28;20116;-79
2023/09/27 07:21:44;;;;;;;42.55;16.02;;;;;;;24.63;70.03;100985.13;5051548;28;20444;-80
2023/09/27 07:24:10;;;;;;;39.67;11.88;;;;;;;24.85;69.68;100997.69;5051763;28;20595;-78
2023/09/27 07:26:41;;;;;;;29.60;9.27;;;;;;;24.94;68.38;100998.34;5051130;28;20556;-80
2023/09/27 07:29:07;;;;;;;31.42;11.73;;;;;;;24.96;67.55;100962.34;5050912;28;20029;-79
2023/09/27 07:31:33;;;;;;;42.65;10.23;;;;;;;25.22;65.90;100989.91;5051323;28;20029;-79
2023/09/27 07:33:58;;;;;;;24.50;10.25;;;;;;;25.36;64.48;100991.59;5051378;28;20095;-79
2023/09/27 07:36:24;;;;;;;23.20;6.72;;;;;;;25.46;63.56;100994.75;5051051;28;20500;-80
2023/09/27 07:38:57;;;;;;;36.47;11.20;;;;;;;25.65;62.13;100991.19;5050886;28;20091;-79
2023/09/27 07:41:24;;;;;;;47.97;9.48;;;;;;;25.72;58.20;100991.13;5050768;28;20057;-78
2023/09/27 07:43:50;;;;;;;49.78;8.48;;;;;;;25.81;57.52;101011.91;5050976;28;20056;-78
2023/09/27 07:46:17;;;;;;;28.40;7.55;;;;;;;25.87;55.80;100984.31;5051096;28;20068;-79
2023/09/27 07:48:43;;;;;;;30.88;7.30;;;;;;;25.92;55.05;100986.44;5051397;28;20027;-78
2023/09/27 07:51:19;;;;;;;28.48;6.95;;;;;;;26.03;54.51;100999.56;5050827;28;20083;-79
2023/09/27 07:53:45;;;;;;;96.55;13.40;;;;;;;26.13;54.34;100993.59;5050642;28;20033;-79
2023/09/27 07:56:26;;;;;;;36.72;7.43;;;;;;;26.30;53.36;101008.59;5051089;28;20033;-79
2023/09/27 07:58:53;;;;;;;48.15;6.85;;;;;;;26.29;53.36;101010.56;5050414;28;20203;-79
2023/09/27 08:01:20;;;;;;;43.67;6.72;;;;;;;26.34;52.91;101007.97;5050860;28;20099;-77
2023/09/27 08:03:48;;;;;;;56.53;8.13;;;;;;;26.36;52.31;101010.53;5050786;28;20028;-79
2023/09/27 08:06:13;;;;;;;26.42;5.40;;;;;;;26.22;53.27;100992.31;5050504;28;20033;-78
2023/09/27 08:08:39;;;;;;;33.22;7.47;;;;;;;26.38;52.45;101008.38;5051457;28;20035;-80
2023/09/27 08:11:04;;;;;;;29.02;5.82;;;;;;;26.50;52.06;101006.63;5051068;28;20029;-78
2023/09/27 08:13:31;;;;;;;40.10;7.88;;;;;;;26.57;51.67;101012.97;5050481;28;20057;-79
2023/09/27 08:15:57;;;;;;;32.35;6.97;;;;;;;26.49;51.40;100985.63;5050635;28;20068;-79
2023/09/27 08:18:24;;;;;;;37.13;6.85;;;;;;;26.69;51.85;101013.97;5050252;28;20497;-78
2023/09/27 08:20:52;;;;;;;24.67;5.03;;;;;;;26.69;51.59;101002.94;5050419;28;20025;-78
2023/09/27 08:23:18;;;;;;;32.35;5.93;;;;;;;26.63;51.78;100978.97;5049959;28;20032;-78
2023/09/27 08:25:43;;;;;;;39.05;6.82;;;;;;;26.88;51.12;101013.00;5049996;28;20025;-79
2023/09/27 08:28:09;;;;;;;25.08;6.05;;;;;;;26.89;51.04;101005.59;5050394;28;20041;-78
2023/09/27 08:30:35;;;;;;;30.02;7.93;;;;;;;27.03;50.53;100994.22;5050108;28;20033;-78
2023/09/27 08:33:01;;;;;;;51.55;6.88;;;;;;;26.91;48.86;100979.44;5050403;28;20025;-79
2023/09/27 08:35:27;;;;;;;30.35;5.95;;;;;;;27.22;49.17;100999.81;5050814;28;20025;-78
2023/09/27 08:37:53;;;;;;;24.42;5.75;;;;;;;27.13;49.21;100970.78;5049988;28;20049;-81
2023/09/27 08:40:19;;;;;;;30.38;5.72;;;;;;;27.43;49.91;101007.78;5049967;28;20036;-78
2023/09/27 08:42:50;;;;;;;34.38;6.20;;;;;;;27.43;49.67;101007.78;5049885;28;20136;-77
2023/09/27 08:45:19;;;;;;;37.30;6.13;;;;;;;27.53;49.50;101003.41;5049981;28;20420;-79
2023/09/27 08:47:45;;;;;;;31.80;5.22;;;;;;;27.51;47.92;100991.75;5049953;28;20037;-79
2023/09/27 08:50:15;;;;;;;29.65;6.28;;;;;;;27.63;48.52;101013.97;5050000;28;20037;-78
2023/09/27 08:52:50;;;;;;;35.63;5.50;;;;;;;27.58;48.60;101013.81;5031580;28;20029;-79
2023/09/27 08:55:17;;;;;;;38.83;7.45;;;;;;;27.44;48.72;100984.59;5049647;28;20029;-79
2023/09/27 08:57:48;;;;;;;53.20;7.32;;;;;;;26.98;47.18;100933.31;5031624;28;20174;-78
2023/09/27 09:00:16;;;;;;;18.13;5.28;;;;;;;27.57;47.32;101023.16;5049844;28;20025;-79
2023/09/27 09:02:47;;;;;;;34.70;6.40;;;;;;;27.59;46.47;101012.72;5049315;28;20032;-78
2023/09/27 09:05:13;;;;;;;19.50;5.38;;;;;;;27.58;46.34;101015.72;5049484;28;20039;-79
2023/09/27 09:07:40;;;;;;;27.50;5.57;;;;;;;27.72;47.08;101018.13;5049226;28;20546;-79
2023/09/27 09:10:16;;;;;;;47.00;6.40;;;;;;;27.83;47.57;101031.19;5048411;28;20032;-79
2023/09/27 09:12:47;;;;;;;35.38;6.55;;;;;;;27.82;47.10;101023.97;5048192;28;20040;-78
2023/09/27 09:15:26;;;;;;;33.25;6.43;;;;;;;27.76;46.80;100999.16;5049219;28;20481;-79
2023/09/27 09:17:57;;;;;;;63.58;7.07;;;;;;;27.83;46.06;101025.66;5048868;28;20052;-78
2023/09/27 09:20:32;;;;;;;25.35;6.15;;;;;;;27.70;45.26;101008.38;5049445;28;20028;-80
2023/09/27 09:23:02;;;;;;;38.70;7.40;;;;;;;27.85;45.25;101031.81;5032676;28;20032;-78
2023/09/27 09:25:28;;;;;;;44.08;7.35;;;;;;;27.46;45.85;100990.75;5049356;28;20040;-79
2023/09/27 09:28:13;;;;;;;38.53;6.38;;;;;;;27.61;45.42;100980.19;5049100;28;20725;-79
2023/09/27 09:30:40;;;;;;;25.23;4.55;;;;;;;27.87;45.66;101015.84;5049150;28;20029;-79
2023/09/27 09:33:15;;;;;;;38.40;6.63;;;;;;;28.05;46.08;101049.06;5049168;28;20070;-78
2023/09/27 09:35:40;;;;;;;32.67;5.47;;;;;;;27.71;45.93;100994.31;5049388;28;20104;-79
2023/09/27 09:38:06;;;;;;;17.80;5.25;;;;;;;27.90;46.78;101029.22;5049254;28;20109;-79
2023/09/27 09:40:32;;;;;;;27.90;5.22;;;;;;;27.89;46.55;101004.53;5049497;28;20036;-79
2023/09/27 09:42:59;;;;;;;32.78;6.03;;;;;;;27.89;46.98;101019.22;5049119;28;20133;-79
2023/09/27 09:45:26;;;;;;;44.25;6.40;;;;;;;27.84;46.15;101010.78;5049316;28;20048;-79
2023/09/27 09:47:52;;;;;;;19.45;5.75;;;;;;;27.86;45.89;101003.06;5057646;28;20021;-80
2023/09/27 09:50:18;;;;;;;29.80;5.72;;;;;;;27.75;46.30;101012.13;5072973;28;20070;-79
2023/09/27 09:53:05;;;;;;;24.42;5.35;;;;;;;27.85;46.11;101045.66;5068536;28;20044;-79
2023/09/27 09:55:31;;;;;;;35.25;5.45;;;;;;;27.81;47.16;101010.38;5063626;28;20437;-80
2023/09/27 09:58:25;;;;;;;28.60;5.10;;;;;;;27.87;46.44;101015.84;5070891;28;20025;-78
2023/09/27 10:00:53;;;;;;;21.38;4.95;;;;;;;27.86;45.80;101016.91;5064980;28;20032;-78
2023/09/27 10:03:30;;;;;;;22.63;5.68;;;;;;;27.88;44.83;101028.59;5024258;28;20037;-79
2023/09/27 10:05:56;;;;;;;30.98;6.32;;;;;;;27.87;45.91;101004.78;5054016;28;20033;-79
2023/09/27 10:08:23;;;;;;;31.88;6.45;;;;;;;28.11;45.22;101016.88;5016681;28;20163;-78
2023/09/27 10:10:48;;;;;;;29.13;5.63;;;;;;;27.94;44.63;100988.97;5050055;28;20025;-78
2023/09/27 10:13:14;;;;;;;45.85;7.70;;;;;;;28.20;44.24;101009.97;5050372;28;20463;-79
2023/09/27 10:15:42;;;;;;;16.00;5.13;;;;;;;28.28;43.70;101017.13;5050149;28;20190;-80
2023/09/27 10:18:22;;;;;;;27.42;5.07;;;;;;;28.30;43.23;101013.03;5049476;28;20029;-78
2023/09/27 10:21:05;;;;;;;28.23;4.82;;;;;;;28.27;43.50;101009.88;5050350;28;20029;-79
2023/09/27 10:24:00;;;;;;;20.50;5.07;;;;;;;28.25;43.79;101003.75;5053625;28;20025;-79
2023/09/27 10:26:33;;;;;;;24.42;5.53;;;;;;;28.47;44.18;101004.97;5052572;28;20094;-78
2023/09/27 10:29:07;;;;;;;25.92;6.47;;;;;;;28.47;44.19;101004.97;5052367;28;20033;-79
2023/09/27 10:31:47;;;;;;;19.77;4.85;;;;;;;28.39;44.53;101010.81;5052784;28;20519;-81
2023/09/27 10:34:42;;;;;;;55.20;6.88;;;;;;;28.33;43.40;101008.97;5052494;28;20028;-77
2023/09/27 10:37:07;;;;;;;27.27;6.22;;;;;;;28.40;42.72;101018.88;4951405;29;20444;-79
2023/09/27 10:39:33;;;;;;;26.42;5.97;;;;;;;28.41;43.15;101003.94;4951372;29;20070;-79
2023/09/27 10:41:58;;;;;;;18.33;5.13;;;;;;;28.66;43.51;101017.72;4951591;29;20066;-79
2023/09/27 10:44:28;;;;;;;28.17;6.07;;;;;;;28.50;44.09;100993.44;4951532;29;20082;-79
2023/09/27 10:46:54;;;;;;;50.72;5.88;;;;;;;28.73;44.20;101021.25;4951474;29;20491;-79
2023/09/27 10:49:27;;;;;;;63.17;7.80;;;;;;;28.68;44.76;101007.28;4935042;29;20039;-79
2023/09/27 10:51:53;;;;;;;47.63;5.78;;;;;;;28.69;44.65;101000.63;4951660;29;20031;-79
2023/09/27 10:54:23;;;;;;;48.30;8.32;;;;;;;28.80;45.00;101004.53;4951251;29;20157;-78
2023/09/27 10:56:58;;;;;;;42.45;6.88;;;;;;;28.84;44.91;101009.34;4951523;29;20051;-79
2023/09/27 10:59:27;;;;;;;20.50;4.63;;;;;;;28.79;44.55;101009.22;4951312;29;20182;-79
2023/09/27 11:01:53;;;;;;;41.13;7.70;;;;;;;28.74;44.74;101002.72;4935073;29;20447;-79
2023/09/27 11:04:23;;;;;;;37.40;7.03;;;;;;;28.68;44.71;100996.19;4951229;29;20031;-79
2023/09/27 11:06:49;;;;;;;31.50;6.43;;;;;;;28.80;44.15;100999.00;4951375;29;20134;-78
2023/09/27 11:09:19;;;;;;;27.98;6.00;;;;;;;28.72;44.31;100997.41;4951124;29;20039;-80
2023/09/27 11:11:46;;;;;;;24.70;5.72;;;;;;;28.80;44.38;101019.25;4951363;29;20058;-79
2023/09/27 11:14:11;;;;;;;22.10;5.75;;;;;;;28.83;44.14;100998.53;5028142;28;20448;-78
2023/09/27 11:16:37;;;;;;;34.47;5.35;;;;;;;28.81;44.54;100995.13;5052094;28;20043;-79